sensor_id;sensor_type;location;lat;lon;timestamp;P1;durP1;ratioP1;P2;durP2;ratioP2
57635;SDS011;43465;50.728;4.160;2022-12-18T00:00:46;31.90;;;18.30;;
57635;SDS011;43465;50.728;4.160;2022-12-18T00:03:12;36.05;;;19.60;;
57635;SDS011;43465;50.728;4.160;2022-12-18T00:05:45;32.75;;;19.85;;
57635;SDS011;43465;50.728;4.160;2022-12-18T00:08:15;33.78;;;19.40;;
57635;SDS011;43465;50.728;4.160;2022-12-18T00:10:42;30.38;;;18.95;;
57635;SDS011;43465;50.728;4.160;2022-12-18T00:13:08;32.40;;;19.00;;
57635;SDS011;43465;50.728;4.160;2022-12-18T00:15:35;34.30;;;20.15;;
57635;SDS011;43465;50.728;4.160;2022-12-18T00:18:01;31.95;;;19.00;;
57635;SDS011;43465;50.728;4.160;2022-12-18T00:20:27;32.50;;;19.33;;
57635;SDS011;43465;50.728;4.160;2022-12-18T00:22:53;39.40;;;20.35;;
57635;SDS011;43465;50.728;4.160;2022-12-18T00:25:19;36.20;;;20.95;;
57635;SDS011;43465;50.728;4.160;2022-12-18T00:27:45;36.70;;;21.13;;
57635;SDS011;43465;50.728;4.160;2022-12-18T00:30:11;37.08;;;21.48;;
57635;SDS011;43465;50.728;4.160;2022-12-18T00:32:37;39.05;;;22.17;;
57635;SDS011;43465;50.728;4.160;2022-12-18T00:35:03;41.50;;;22.38;;
57635;SDS011;43465;50.728;4.160;2022-12-18T00:37:30;36.97;;;21.08;;
57635;SDS011;43465;50.728;4.160;2022-12-18T00:39:56;37.35;;;22.30;;
57635;SDS011;43465;50.728;4.160;2022-12-18T00:42:21;45.40;;;24.23;;
57635;SDS011;43465;50.728;4.160;2022-12-18T00:45:06;44.28;;;27.00;;
57635;SDS011;43465;50.728;4.160;2022-12-18T00:47:31;47.30;;;26.30;;
57635;SDS011;43465;50.728;4.160;2022-12-18T00:49:57;45.55;;;25.27;;
57635;SDS011;43465;50.728;4.160;2022-12-18T00:52:23;41.95;;;24.63;;
57635;SDS011;43465;50.728;4.160;2022-12-18T00:54:48;39.45;;;22.23;;
57635;SDS011;43465;50.728;4.160;2022-12-18T00:57:14;35.33;;;21.08;;
57635;SDS011;43465;50.728;4.160;2022-12-18T00:59:39;32.47;;;19.48;;
57635;SDS011;43465;50.728;4.160;2022-12-18T01:02:05;32.00;;;17.38;;
57635;SDS011;43465;50.728;4.160;2022-12-18T01:04:31;33.45;;;18.85;;
57635;SDS011;43465;50.728;4.160;2022-12-18T01:06:58;31.80;;;19.17;;
57635;SDS011;43465;50.728;4.160;2022-12-18T01:09:23;31.15;;;18.70;;
57635;SDS011;43465;50.728;4.160;2022-12-18T01:11:49;36.95;;;19.92;;
57635;SDS011;43465;50.728;4.160;2022-12-18T01:14:15;36.17;;;19.55;;
57635;SDS011;43465;50.728;4.160;2022-12-18T01:16:40;31.80;;;17.27;;
57635;SDS011;43465;50.728;4.160;2022-12-18T01:19:06;26.58;;;16.15;;
57635;SDS011;43465;50.728;4.160;2022-12-18T01:21:32;26.48;;;16.02;;
57635;SDS011;43465;50.728;4.160;2022-12-18T01:23:57;25.17;;;14.75;;
57635;SDS011;43465;50.728;4.160;2022-12-18T01:26:23;24.60;;;14.23;;
57635;SDS011;43465;50.728;4.160;2022-12-18T01:28:50;25.50;;;14.80;;
57635;SDS011;43465;50.728;4.160;2022-12-18T01:31:17;23.42;;;13.73;;
57635;SDS011;43465;50.728;4.160;2022-12-18T01:33:48;25.85;;;14.55;;
57635;SDS011;43465;50.728;4.160;2022-12-18T01:36:15;28.75;;;14.73;;
57635;SDS011;43465;50.728;4.160;2022-12-18T01:38:42;26.27;;;14.65;;
57635;SDS011;43465;50.728;4.160;2022-12-18T01:41:08;24.52;;;14.90;;
57635;SDS011;43465;50.728;4.160;2022-12-18T01:43:44;25.08;;;15.15;;
57635;SDS011;43465;50.728;4.160;2022-12-18T01:46:13;25.60;;;14.40;;
57635;SDS011;43465;50.728;4.160;2022-12-18T01:48:39;24.35;;;14.50;;
57635;SDS011;43465;50.728;4.160;2022-12-18T01:51:06;25.98;;;15.00;;
57635;SDS011;43465;50.728;4.160;2022-12-18T01:53:34;23.48;;;14.02;;
57635;SDS011;43465;50.728;4.160;2022-12-18T01:56:02;25.60;;;15.00;;
57635;SDS011;43465;50.728;4.160;2022-12-18T02:01:15;23.70;;;14.70;;
57635;SDS011;43465;50.728;4.160;2022-12-18T02:03:42;26.20;;;15.20;;
57635;SDS011;43465;50.728;4.160;2022-12-18T02:06:13;26.23;;;15.00;;
57635;SDS011;43465;50.728;4.160;2022-12-18T02:09:30;23.52;;;14.75;;
57635;SDS011;43465;50.728;4.160;2022-12-18T02:22:48;25.23;;;14.30;;
57635;SDS011;43465;50.728;4.160;2022-12-18T02:25:33;23.85;;;13.88;;
57635;SDS011;43465;50.728;4.160;2022-12-18T02:28:15;23.85;;;14.55;;
57635;SDS011;43465;50.728;4.160;2022-12-18T02:30:45;22.00;;;13.80;;
57635;SDS011;43465;50.728;4.160;2022-12-18T02:33:14;27.00;;;14.90;;
57635;SDS011;43465;50.728;4.160;2022-12-18T02:35:40;23.85;;;14.15;;
57635;SDS011;43465;50.728;4.160;2022-12-18T02:38:06;24.42;;;14.27;;
57635;SDS011;43465;50.728;4.160;2022-12-18T02:40:32;25.23;;;13.98;;
57635;SDS011;43465;50.728;4.160;2022-12-18T02:43:02;23.88;;;14.63;;
57635;SDS011;43465;50.728;4.160;2022-12-18T02:45:32;24.15;;;14.77;;
57635;SDS011;43465;50.728;4.160;2022-12-18T02:47:58;21.90;;;13.88;;
57635;SDS011;43465;50.728;4.160;2022-12-18T02:50:30;26.50;;;15.50;;
57635;SDS011;43465;50.728;4.160;2022-12-18T02:56:01;26.83;;;14.85;;
57635;SDS011;43465;50.728;4.160;2022-12-18T03:04:19;23.05;;;13.25;;
57635;SDS011;43465;50.728;4.160;2022-12-18T03:06:53;23.02;;;13.98;;
57635;SDS011;43465;50.728;4.160;2022-12-18T03:09:24;20.30;;;12.80;;
57635;SDS011;43465;50.728;4.160;2022-12-18T03:11:56;23.15;;;13.02;;
57635;SDS011;43465;50.728;4.160;2022-12-18T03:14:46;21.90;;;13.00;;
57635;SDS011;43465;50.728;4.160;2022-12-18T03:17:22;20.75;;;12.00;;
57635;SDS011;43465;50.728;4.160;2022-12-18T03:19:50;17.90;;;11.25;;
57635;SDS011;43465;50.728;4.160;2022-12-18T03:22:17;19.30;;;11.60;;
57635;SDS011;43465;50.728;4.160;2022-12-18T03:24:44;23.40;;;12.48;;
57635;SDS011;43465;50.728;4.160;2022-12-18T03:27:12;18.27;;;11.07;;
57635;SDS011;43465;50.728;4.160;2022-12-18T03:29:43;17.13;;;10.93;;
57635;SDS011;43465;50.728;4.160;2022-12-18T03:32:21;19.67;;;11.93;;
57635;SDS011;43465;50.728;4.160;2022-12-18T03:34:51;15.50;;;10.43;;
57635;SDS011;43465;50.728;4.160;2022-12-18T03:37:20;17.95;;;10.93;;
57635;SDS011;43465;50.728;4.160;2022-12-18T03:39:46;19.50;;;11.93;;
57635;SDS011;43465;50.728;4.160;2022-12-18T03:42:23;17.33;;;11.45;;
57635;SDS011;43465;50.728;4.160;2022-12-18T03:44:57;19.02;;;11.20;;
57635;SDS011;43465;50.728;4.160;2022-12-18T03:47:29;18.83;;;11.80;;
57635;SDS011;43465;50.728;4.160;2022-12-18T03:53:36;17.85;;;11.88;;
57635;SDS011;43465;50.728;4.160;2022-12-18T03:56:11;19.35;;;11.27;;
57635;SDS011;43465;50.728;4.160;2022-12-18T03:58:40;18.70;;;11.45;;
57635;SDS011;43465;50.728;4.160;2022-12-18T04:01:07;21.67;;;12.13;;
57635;SDS011;43465;50.728;4.160;2022-12-18T04:03:36;19.23;;;12.35;;
57635;SDS011;43465;50.728;4.160;2022-12-18T04:06:02;18.83;;;12.23;;
57635;SDS011;43465;50.728;4.160;2022-12-18T04:08:29;19.33;;;12.73;;
57635;SDS011;43465;50.728;4.160;2022-12-18T04:10:55;18.77;;;11.85;;
57635;SDS011;43465;50.728;4.160;2022-12-18T04:13:28;19.50;;;12.07;;
57635;SDS011;43465;50.728;4.160;2022-12-18T04:15:59;21.65;;;12.32;;
57635;SDS011;43465;50.728;4.160;2022-12-18T04:18:25;16.40;;;10.60;;
57635;SDS011;43465;50.728;4.160;2022-12-18T04:20:50;18.27;;;11.43;;
57635;SDS011;43465;50.728;4.160;2022-12-18T04:23:16;20.65;;;10.93;;
57635;SDS011;43465;50.728;4.160;2022-12-18T04:25:43;15.90;;;10.55;;
57635;SDS011;43465;50.728;4.160;2022-12-18T04:28:08;17.17;;;10.35;;
57635;SDS011;43465;50.728;4.160;2022-12-18T04:30:34;17.73;;;10.65;;
57635;SDS011;43465;50.728;4.160;2022-12-18T04:33:00;15.43;;;9.05;;
57635;SDS011;43465;50.728;4.160;2022-12-18T04:35:25;19.42;;;9.90;;
57635;SDS011;43465;50.728;4.160;2022-12-18T04:37:51;17.35;;;8.88;;
57635;SDS011;43465;50.728;4.160;2022-12-18T04:40:17;14.77;;;9.25;;
57635;SDS011;43465;50.728;4.160;2022-12-18T04:42:46;15.73;;;9.25;;
57635;SDS011;43465;50.728;4.160;2022-12-18T04:45:12;16.23;;;9.65;;
57635;SDS011;43465;50.728;4.160;2022-12-18T04:47:37;16.30;;;9.68;;
57635;SDS011;43465;50.728;4.160;2022-12-18T04:50:03;14.32;;;9.35;;
57635;SDS011;43465;50.728;4.160;2022-12-18T04:52:30;15.00;;;9.70;;
57635;SDS011;43465;50.728;4.160;2022-12-18T04:54:56;13.65;;;9.48;;
57635;SDS011;43465;50.728;4.160;2022-12-18T04:57:21;16.95;;;10.60;;
57635;SDS011;43465;50.728;4.160;2022-12-18T04:59:48;17.30;;;10.68;;
57635;SDS011;43465;50.728;4.160;2022-12-18T05:02:13;15.95;;;10.55;;
57635;SDS011;43465;50.728;4.160;2022-12-18T05:04:39;17.67;;;11.02;;
57635;SDS011;43465;50.728;4.160;2022-12-18T05:07:04;18.08;;;11.07;;
57635;SDS011;43465;50.728;4.160;2022-12-18T05:09:30;19.75;;;10.82;;
57635;SDS011;43465;50.728;4.160;2022-12-18T05:11:56;22.55;;;12.43;;
57635;SDS011;43465;50.728;4.160;2022-12-18T05:14:21;22.75;;;12.32;;
57635;SDS011;43465;50.728;4.160;2022-12-18T05:16:47;26.65;;;14.30;;
57635;SDS011;43465;50.728;4.160;2022-12-18T05:19:13;44.65;;;21.58;;
57635;SDS011;43465;50.728;4.160;2022-12-18T05:21:39;35.25;;;19.23;;
57635;SDS011;43465;50.728;4.160;2022-12-18T05:24:04;32.75;;;17.88;;
57635;SDS011;43465;50.728;4.160;2022-12-18T05:26:30;23.80;;;13.70;;
57635;SDS011;43465;50.728;4.160;2022-12-18T05:28:56;18.92;;;12.30;;
57635;SDS011;43465;50.728;4.160;2022-12-18T05:31:22;20.83;;;13.15;;
57635;SDS011;43465;50.728;4.160;2022-12-18T05:33:48;18.90;;;12.27;;
57635;SDS011;43465;50.728;4.160;2022-12-18T05:36:14;20.92;;;11.23;;
57635;SDS011;43465;50.728;4.160;2022-12-18T05:38:40;18.30;;;11.30;;
57635;SDS011;43465;50.728;4.160;2022-12-18T05:41:06;18.02;;;11.23;;
57635;SDS011;43465;50.728;4.160;2022-12-18T05:43:36;17.23;;;10.90;;
57635;SDS011;43465;50.728;4.160;2022-12-18T05:46:07;17.15;;;10.00;;
57635;SDS011;43465;50.728;4.160;2022-12-18T05:48:34;16.13;;;10.27;;
57635;SDS011;43465;50.728;4.160;2022-12-18T05:51:04;15.77;;;9.93;;
57635;SDS011;43465;50.728;4.160;2022-12-18T05:53:34;15.10;;;9.85;;
57635;SDS011;43465;50.728;4.160;2022-12-18T05:56:01;16.10;;;9.60;;
57635;SDS011;43465;50.728;4.160;2022-12-18T05:58:29;15.63;;;9.52;;
57635;SDS011;43465;50.728;4.160;2022-12-18T06:00:55;16.02;;;9.75;;
57635;SDS011;43465;50.728;4.160;2022-12-18T06:03:21;15.63;;;9.77;;
57635;SDS011;43465;50.728;4.160;2022-12-18T06:05:47;18.25;;;10.40;;
57635;SDS011;43465;50.728;4.160;2022-12-18T06:08:12;13.85;;;8.82;;
57635;SDS011;43465;50.728;4.160;2022-12-18T06:10:39;16.45;;;9.45;;
57635;SDS011;43465;50.728;4.160;2022-12-18T06:13:05;14.57;;;9.30;;
57635;SDS011;43465;50.728;4.160;2022-12-18T06:15:31;12.77;;;8.00;;
57635;SDS011;43465;50.728;4.160;2022-12-18T06:17:57;14.00;;;8.50;;
57635;SDS011;43465;50.728;4.160;2022-12-18T06:20:23;13.45;;;8.52;;
57635;SDS011;43465;50.728;4.160;2022-12-18T06:22:49;14.18;;;8.75;;
57635;SDS011;43465;50.728;4.160;2022-12-18T06:25:14;16.10;;;9.68;;
57635;SDS011;43465;50.728;4.160;2022-12-18T06:27:40;12.70;;;8.90;;
57635;SDS011;43465;50.728;4.160;2022-12-18T06:30:06;17.75;;;10.20;;
57635;SDS011;43465;50.728;4.160;2022-12-18T06:32:32;15.98;;;9.70;;
57635;SDS011;43465;50.728;4.160;2022-12-18T06:34:58;17.63;;;10.93;;
57635;SDS011;43465;50.728;4.160;2022-12-18T06:37:23;17.40;;;10.30;;
57635;SDS011;43465;50.728;4.160;2022-12-18T06:39:51;18.00;;;9.70;;
57635;SDS011;43465;50.728;4.160;2022-12-18T06:42:17;17.08;;;9.90;;
57635;SDS011;43465;50.728;4.160;2022-12-18T06:44:42;15.27;;;9.68;;
57635;SDS011;43465;50.728;4.160;2022-12-18T06:47:08;15.20;;;9.75;;
57635;SDS011;43465;50.728;4.160;2022-12-18T06:49:34;14.82;;;9.95;;
57635;SDS011;43465;50.728;4.160;2022-12-18T06:51:59;16.77;;;10.10;;
57635;SDS011;43465;50.728;4.160;2022-12-18T06:54:25;15.52;;;9.43;;
57635;SDS011;43465;50.728;4.160;2022-12-18T06:56:51;15.30;;;9.30;;
57635;SDS011;43465;50.728;4.160;2022-12-18T06:59:16;14.02;;;9.13;;
57635;SDS011;43465;50.728;4.160;2022-12-18T07:01:42;11.98;;;8.20;;
57635;SDS011;43465;50.728;4.160;2022-12-18T07:04:07;13.27;;;8.75;;
57635;SDS011;43465;50.728;4.160;2022-12-18T07:06:33;15.40;;;9.98;;
57635;SDS011;43465;50.728;4.160;2022-12-18T07:08:59;14.85;;;9.18;;
57635;SDS011;43465;50.728;4.160;2022-12-18T07:11:24;16.77;;;9.55;;
57635;SDS011;43465;50.728;4.160;2022-12-18T07:13:51;15.90;;;9.68;;
57635;SDS011;43465;50.728;4.160;2022-12-18T07:16:18;17.83;;;9.38;;
57635;SDS011;43465;50.728;4.160;2022-12-18T07:18:44;19.42;;;10.70;;
57635;SDS011;43465;50.728;4.160;2022-12-18T07:21:11;16.67;;;10.13;;
57635;SDS011;43465;50.728;4.160;2022-12-18T07:23:38;15.68;;;9.75;;
57635;SDS011;43465;50.728;4.160;2022-12-18T07:26:05;15.63;;;9.63;;
57635;SDS011;43465;50.728;4.160;2022-12-18T07:28:32;15.82;;;9.50;;
57635;SDS011;43465;50.728;4.160;2022-12-18T07:31:06;18.05;;;9.55;;
57635;SDS011;43465;50.728;4.160;2022-12-18T07:33:33;17.63;;;10.68;;
57635;SDS011;43465;50.728;4.160;2022-12-18T07:36:03;15.35;;;9.90;;
57635;SDS011;43465;50.728;4.160;2022-12-18T07:38:30;15.40;;;9.25;;
57635;SDS011;43465;50.728;4.160;2022-12-18T07:41:15;15.55;;;9.38;;
57635;SDS011;43465;50.728;4.160;2022-12-18T07:43:41;14.55;;;9.00;;
57635;SDS011;43465;50.728;4.160;2022-12-18T07:46:07;15.10;;;9.18;;
57635;SDS011;43465;50.728;4.160;2022-12-18T07:48:34;14.23;;;9.25;;
57635;SDS011;43465;50.728;4.160;2022-12-18T07:51:00;17.15;;;8.93;;
57635;SDS011;43465;50.728;4.160;2022-12-18T07:53:26;15.00;;;9.63;;
57635;SDS011;43465;50.728;4.160;2022-12-18T07:55:59;16.98;;;9.68;;
57635;SDS011;43465;50.728;4.160;2022-12-18T07:58:27;13.80;;;8.90;;
57635;SDS011;43465;50.728;4.160;2022-12-18T08:00:53;14.80;;;9.65;;
57635;SDS011;43465;50.728;4.160;2022-12-18T08:03:19;14.48;;;9.20;;
57635;SDS011;43465;50.728;4.160;2022-12-18T08:05:45;17.95;;;9.65;;
57635;SDS011;43465;50.728;4.160;2022-12-18T08:08:11;16.77;;;9.63;;
57635;SDS011;43465;50.728;4.160;2022-12-18T08:10:37;17.75;;;9.43;;
57635;SDS011;43465;50.728;4.160;2022-12-18T08:13:03;14.95;;;9.38;;
57635;SDS011;43465;50.728;4.160;2022-12-18T08:15:28;14.85;;;9.85;;
57635;SDS011;43465;50.728;4.160;2022-12-18T08:17:57;15.65;;;9.77;;
57635;SDS011;43465;50.728;4.160;2022-12-18T08:20:23;17.98;;;10.85;;
57635;SDS011;43465;50.728;4.160;2022-12-18T08:22:48;19.00;;;10.95;;
57635;SDS011;43465;50.728;4.160;2022-12-18T08:25:14;19.30;;;11.20;;
57635;SDS011;43465;50.728;4.160;2022-12-18T08:27:40;17.55;;;10.77;;
57635;SDS011;43465;50.728;4.160;2022-12-18T08:30:05;18.63;;;11.25;;
57635;SDS011;43465;50.728;4.160;2022-12-18T08:32:32;19.35;;;11.70;;
57635;SDS011;43465;50.728;4.160;2022-12-18T08:34:58;18.05;;;10.73;;
57635;SDS011;43465;50.728;4.160;2022-12-18T08:37:24;19.63;;;10.85;;
57635;SDS011;43465;50.728;4.160;2022-12-18T08:39:49;17.48;;;10.25;;
57635;SDS011;43465;50.728;4.160;2022-12-18T08:42:15;14.43;;;9.63;;
57635;SDS011;43465;50.728;4.160;2022-12-18T08:44:59;16.13;;;9.85;;
57635;SDS011;43465;50.728;4.160;2022-12-18T08:47:25;15.77;;;9.60;;
57635;SDS011;43465;50.728;4.160;2022-12-18T08:49:51;18.25;;;11.00;;
57635;SDS011;43465;50.728;4.160;2022-12-18T08:52:16;17.38;;;10.45;;
57635;SDS011;43465;50.728;4.160;2022-12-18T08:54:42;16.55;;;10.18;;
57635;SDS011;43465;50.728;4.160;2022-12-18T08:57:08;16.35;;;9.90;;
57635;SDS011;43465;50.728;4.160;2022-12-18T08:59:33;15.57;;;9.75;;
57635;SDS011;43465;50.728;4.160;2022-12-18T09:01:59;15.18;;;9.48;;
57635;SDS011;43465;50.728;4.160;2022-12-18T09:04:25;14.20;;;10.23;;
57635;SDS011;43465;50.728;4.160;2022-12-18T09:06:50;16.23;;;9.30;;
57635;SDS011;43465;50.728;4.160;2022-12-18T09:09:16;12.73;;;8.82;;
57635;SDS011;43465;50.728;4.160;2022-12-18T09:11:42;14.57;;;9.13;;
57635;SDS011;43465;50.728;4.160;2022-12-18T09:14:08;13.82;;;8.85;;
57635;SDS011;43465;50.728;4.160;2022-12-18T09:16:35;14.32;;;9.50;;
57635;SDS011;43465;50.728;4.160;2022-12-18T09:19:01;17.00;;;10.02;;
57635;SDS011;43465;50.728;4.160;2022-12-18T09:21:32;15.48;;;9.23;;
57635;SDS011;43465;50.728;4.160;2022-12-18T09:23:59;14.90;;;9.18;;
57635;SDS011;43465;50.728;4.160;2022-12-18T09:26:25;15.30;;;9.57;;
57635;SDS011;43465;50.728;4.160;2022-12-18T09:28:52;13.90;;;9.23;;
57635;SDS011;43465;50.728;4.160;2022-12-18T09:31:19;16.13;;;10.07;;
57635;SDS011;43465;50.728;4.160;2022-12-18T09:33:46;13.73;;;9.52;;
57635;SDS011;43465;50.728;4.160;2022-12-18T09:36:14;15.02;;;9.75;;
57635;SDS011;43465;50.728;4.160;2022-12-18T09:38:40;16.92;;;10.70;;
57635;SDS011;43465;50.728;4.160;2022-12-18T09:44:18;16.42;;;9.68;;
57635;SDS011;43465;50.728;4.160;2022-12-18T09:46:51;15.32;;;9.27;;
57635;SDS011;43465;50.728;4.160;2022-12-18T09:49:21;15.95;;;9.90;;
57635;SDS011;43465;50.728;4.160;2022-12-18T09:51:56;15.70;;;10.25;;
57635;SDS011;43465;50.728;4.160;2022-12-18T09:54:32;14.07;;;9.80;;
57635;SDS011;43465;50.728;4.160;2022-12-18T09:57:05;16.60;;;10.52;;
57635;SDS011;43465;50.728;4.160;2022-12-18T09:59:35;13.50;;;9.88;;
57635;SDS011;43465;50.728;4.160;2022-12-18T10:02:14;15.73;;;10.35;;
57635;SDS011;43465;50.728;4.160;2022-12-18T10:04:48;16.73;;;10.60;;
57635;SDS011;43465;50.728;4.160;2022-12-18T10:07:32;14.02;;;9.27;;
57635;SDS011;43465;50.728;4.160;2022-12-18T10:13:15;14.70;;;10.35;;
57635;SDS011;43465;50.728;4.160;2022-12-18T10:15:50;17.85;;;10.82;;
57635;SDS011;43465;50.728;4.160;2022-12-18T10:21:20;16.73;;;10.52;;
57635;SDS011;43465;50.728;4.160;2022-12-18T10:26:16;17.10;;;11.50;;
57635;SDS011;43465;50.728;4.160;2022-12-18T10:28:42;20.00;;;12.50;;
57635;SDS011;43465;50.728;4.160;2022-12-18T10:31:16;20.38;;;13.55;;
57635;SDS011;43465;50.728;4.160;2022-12-18T10:33:44;18.60;;;12.50;;
57635;SDS011;43465;50.728;4.160;2022-12-18T10:36:09;20.08;;;11.90;;
57635;SDS011;43465;50.728;4.160;2022-12-18T10:38:35;20.27;;;11.85;;
57635;SDS011;43465;50.728;4.160;2022-12-18T10:41:02;17.02;;;11.10;;
57635;SDS011;43465;50.728;4.160;2022-12-18T10:43:45;15.80;;;10.93;;
57635;SDS011;43465;50.728;4.160;2022-12-18T10:48:56;18.05;;;11.90;;
57635;SDS011;43465;50.728;4.160;2022-12-18T10:53:57;17.95;;;11.27;;
57635;SDS011;43465;50.728;4.160;2022-12-18T10:56:30;15.70;;;11.18;;
57635;SDS011;43465;50.728;4.160;2022-12-18T10:59:05;17.15;;;10.70;;
57635;SDS011;43465;50.728;4.160;2022-12-18T11:04:21;16.33;;;10.27;;
57635;SDS011;43465;50.728;4.160;2022-12-18T11:07:01;17.20;;;11.00;;
57635;SDS011;43465;50.728;4.160;2022-12-18T11:09:29;18.85;;;11.20;;
57635;SDS011;43465;50.728;4.160;2022-12-18T11:12:16;15.55;;;10.43;;
57635;SDS011;43465;50.728;4.160;2022-12-18T11:14:53;18.55;;;11.15;;
57635;SDS011;43465;50.728;4.160;2022-12-18T11:17:21;17.67;;;10.85;;
57635;SDS011;43465;50.728;4.160;2022-12-18T11:19:58;18.02;;;11.70;;
57635;SDS011;43465;50.728;4.160;2022-12-18T11:22:29;18.92;;;11.60;;
57635;SDS011;43465;50.728;4.160;2022-12-18T11:27:56;19.52;;;12.40;;
57635;SDS011;43465;50.728;4.160;2022-12-18T11:30:27;17.50;;;11.50;;
57635;SDS011;43465;50.728;4.160;2022-12-18T11:33:02;18.25;;;11.80;;
57635;SDS011;43465;50.728;4.160;2022-12-18T11:35:52;15.55;;;10.63;;
57635;SDS011;43465;50.728;4.160;2022-12-18T11:38:29;17.75;;;11.57;;
57635;SDS011;43465;50.728;4.160;2022-12-18T11:43:50;19.88;;;12.05;;
57635;SDS011;43465;50.728;4.160;2022-12-18T11:46:34;19.45;;;11.93;;
57635;SDS011;43465;50.728;4.160;2022-12-18T11:49:12;16.77;;;11.52;;
57635;SDS011;43465;50.728;4.160;2022-12-18T11:52:00;18.67;;;11.50;;
57635;SDS011;43465;50.728;4.160;2022-12-18T11:54:31;20.83;;;12.85;;
57635;SDS011;43465;50.728;4.160;2022-12-18T11:57:03;18.75;;;11.50;;
57635;SDS011;43465;50.728;4.160;2022-12-18T12:02:53;20.92;;;13.15;;
57635;SDS011;43465;50.728;4.160;2022-12-18T12:08:17;25.35;;;14.23;;
57635;SDS011;43465;50.728;4.160;2022-12-18T12:11:25;23.52;;;14.13;;
57635;SDS011;43465;50.728;4.160;2022-12-18T12:16:29;26.88;;;14.93;;
57635;SDS011;43465;50.728;4.160;2022-12-18T12:27:14;27.17;;;16.00;;
57635;SDS011;43465;50.728;4.160;2022-12-18T12:30:00;28.70;;;16.60;;
57635;SDS011;43465;50.728;4.160;2022-12-18T12:35:42;28.75;;;17.05;;
57635;SDS011;43465;50.728;4.160;2022-12-18T12:40:39;30.65;;;17.50;;
57635;SDS011;43465;50.728;4.160;2022-12-18T12:45:53;27.73;;;17.60;;
57635;SDS011;43465;50.728;4.160;2022-12-18T12:50:50;27.90;;;17.15;;
57635;SDS011;43465;50.728;4.160;2022-12-18T12:53:21;26.27;;;16.40;;
57635;SDS011;43465;50.728;4.160;2022-12-18T12:55:54;29.65;;;17.83;;
57635;SDS011;43465;50.728;4.160;2022-12-18T13:01:33;27.98;;;17.23;;
57635;SDS011;43465;50.728;4.160;2022-12-18T13:04:23;29.27;;;17.52;;
57635;SDS011;43465;50.728;4.160;2022-12-18T13:07:26;31.58;;;18.38;;
57635;SDS011;43465;50.728;4.160;2022-12-18T13:15:30;29.10;;;17.77;;
57635;SDS011;43465;50.728;4.160;2022-12-18T13:20:43;30.55;;;17.30;;
57635;SDS011;43465;50.728;4.160;2022-12-18T13:28:15;32.50;;;18.30;;
57635;SDS011;43465;50.728;4.160;2022-12-18T13:31:14;34.08;;;19.13;;
57635;SDS011;43465;50.728;4.160;2022-12-18T13:33:44;32.00;;;19.08;;
57635;SDS011;43465;50.728;4.160;2022-12-18T13:39:38;31.17;;;19.25;;
57635;SDS011;43465;50.728;4.160;2022-12-18T13:41:39;32.55;;;18.88;;
57635;SDS011;43465;50.728;4.160;2022-12-18T13:44:12;32.92;;;19.10;;
57635;SDS011;43465;50.728;4.160;2022-12-18T13:46:59;35.40;;;19.20;;
57635;SDS011;43465;50.728;4.160;2022-12-18T13:52:03;33.53;;;19.48;;
57635;SDS011;43465;50.728;4.160;2022-12-18T13:54:45;32.38;;;18.98;;
57635;SDS011;43465;50.728;4.160;2022-12-18T13:59:54;35.80;;;19.65;;
57635;SDS011;43465;50.728;4.160;2022-12-18T14:02:22;33.60;;;19.63;;
57635;SDS011;43465;50.728;4.160;2022-12-18T14:04:50;32.97;;;19.55;;
57635;SDS011;43465;50.728;4.160;2022-12-18T14:07:18;33.50;;;18.48;;
57635;SDS011;43465;50.728;4.160;2022-12-18T14:09:49;32.30;;;18.90;;
57635;SDS011;43465;50.728;4.160;2022-12-18T14:12:32;36.45;;;19.98;;
57635;SDS011;43465;50.728;4.160;2022-12-18T14:18:07;35.00;;;19.30;;
57635;SDS011;43465;50.728;4.160;2022-12-18T14:20:34;35.00;;;19.77;;
57635;SDS011;43465;50.728;4.160;2022-12-18T14:23:00;32.50;;;18.92;;
57635;SDS011;43465;50.728;4.160;2022-12-18T14:25:26;37.22;;;19.90;;
57635;SDS011;43465;50.728;4.160;2022-12-18T14:28:02;35.25;;;19.95;;
57635;SDS011;43465;50.728;4.160;2022-12-18T14:30:38;40.00;;;19.30;;
57635;SDS011;43465;50.728;4.160;2022-12-18T14:35:34;33.88;;;19.17;;
57635;SDS011;43465;50.728;4.160;2022-12-18T14:40:52;34.47;;;20.38;;
57635;SDS011;43465;50.728;4.160;2022-12-18T14:43:22;34.72;;;20.73;;
57635;SDS011;43465;50.728;4.160;2022-12-18T14:45:47;35.33;;;19.90;;
57635;SDS011;43465;50.728;4.160;2022-12-18T14:48:34;35.75;;;19.95;;
57635;SDS011;43465;50.728;4.160;2022-12-18T14:51:01;36.72;;;20.48;;
57635;SDS011;43465;50.728;4.160;2022-12-18T14:59:00;36.08;;;19.20;;
57635;SDS011;43465;50.728;4.160;2022-12-18T15:04:02;34.67;;;19.33;;
57635;SDS011;43465;50.728;4.160;2022-12-18T15:09:06;33.53;;;18.50;;
57635;SDS011;43465;50.728;4.160;2022-12-18T15:11:49;37.60;;;20.13;;
57635;SDS011;43465;50.728;4.160;2022-12-18T15:14:42;33.50;;;19.42;;
57635;SDS011;43465;50.728;4.160;2022-12-18T15:17:17;34.75;;;19.48;;
57635;SDS011;43465;50.728;4.160;2022-12-18T15:19:46;33.28;;;18.70;;
57635;SDS011;43465;50.728;4.160;2022-12-18T15:22:24;37.67;;;19.45;;
57635;SDS011;43465;50.728;4.160;2022-12-18T15:24:50;35.90;;;20.08;;
57635;SDS011;43465;50.728;4.160;2022-12-18T15:27:23;32.55;;;19.50;;
57635;SDS011;43465;50.728;4.160;2022-12-18T15:32:47;35.73;;;21.77;;
57635;SDS011;43465;50.728;4.160;2022-12-18T15:35:15;34.30;;;19.10;;
57635;SDS011;43465;50.728;4.160;2022-12-18T15:37:43;34.22;;;19.60;;
57635;SDS011;43465;50.728;4.160;2022-12-18T15:40:13;32.83;;;19.35;;
57635;SDS011;43465;50.728;4.160;2022-12-18T15:42:40;38.33;;;21.00;;
57635;SDS011;43465;50.728;4.160;2022-12-18T15:45:25;39.40;;;21.65;;
57635;SDS011;43465;50.728;4.160;2022-12-18T15:47:51;37.10;;;21.17;;
57635;SDS011;43465;50.728;4.160;2022-12-18T15:50:17;40.75;;;21.80;;
57635;SDS011;43465;50.728;4.160;2022-12-18T15:52:44;39.25;;;21.55;;
57635;SDS011;43465;50.728;4.160;2022-12-18T15:55:15;44.35;;;23.63;;
57635;SDS011;43465;50.728;4.160;2022-12-18T15:58:03;70.97;;;23.38;;
57635;SDS011;43465;50.728;4.160;2022-12-18T16:00:30;40.42;;;21.95;;
57635;SDS011;43465;50.728;4.160;2022-12-18T16:02:57;40.33;;;21.77;;
57635;SDS011;43465;50.728;4.160;2022-12-18T16:05:22;38.35;;;21.00;;
57635;SDS011;43465;50.728;4.160;2022-12-18T16:07:49;38.90;;;20.05;;
57635;SDS011;43465;50.728;4.160;2022-12-18T16:10:14;34.72;;;19.80;;
57635;SDS011;43465;50.728;4.160;2022-12-18T16:12:40;37.13;;;20.90;;
57635;SDS011;43465;50.728;4.160;2022-12-18T16:15:07;35.30;;;20.45;;
57635;SDS011;43465;50.728;4.160;2022-12-18T16:17:36;33.38;;;19.35;;
57635;SDS011;43465;50.728;4.160;2022-12-18T16:20:02;37.28;;;20.27;;
57635;SDS011;43465;50.728;4.160;2022-12-18T16:22:28;32.90;;;19.80;;
57635;SDS011;43465;50.728;4.160;2022-12-18T16:24:55;34.28;;;19.05;;
57635;SDS011;43465;50.728;4.160;2022-12-18T16:27:22;34.08;;;19.33;;
57635;SDS011;43465;50.728;4.160;2022-12-18T16:29:48;36.70;;;19.65;;
57635;SDS011;43465;50.728;4.160;2022-12-18T16:32:15;33.63;;;19.05;;
57635;SDS011;43465;50.728;4.160;2022-12-18T16:34:43;33.95;;;19.20;;
57635;SDS011;43465;50.728;4.160;2022-12-18T16:37:10;33.80;;;18.80;;
57635;SDS011;43465;50.728;4.160;2022-12-18T16:39:38;35.25;;;18.70;;
57635;SDS011;43465;50.728;4.160;2022-12-18T16:42:09;32.78;;;18.58;;